Time;durP1;ratioP1;P1;durP2;ratioP2;P2;SDS_P1;SDS_P2;PMS_P1;PMS_P2;Temp;Humidity;BMP_temperature;BMP_pressure;BME280_temperature;BME280_humidity;BME280_pressure;Samples;Min_cycle;Max_cycle;Signal;HPM_P1;HPM_P2
2023/01/02 00:00:13;;;;;;;8.88;4.68;;;;;;;5.68;83.92;96652.53;5045909;28;20041;-84
2023/01/02 00:02:39;;;;;;;8.25;4.55;;;;;;;5.67;83.68;96659.03;5052221;28;20053;-83
2023/01/02 00:05:06;;;;;;;7.45;4.20;;;;;;;5.62;83.97;96659.03;5046140;28;20103;-82
2023/01/02 00:07:32;;;;;;;7.90;4.55;;;;;;;5.59;84.00;96651.50;5044845;28;20053;-81
2023/01/02 00:10:00;;;;;;;6.60;4.32;;;;;;;5.54;83.59;96646.13;5056153;28;20067;-82
2023/01/02 00:12:27;;;;;;;7.88;4.10;;;;;;;5.49;83.49;96646.97;5056626;28;20041;-82
2023/01/02 00:14:53;;;;;;;8.32;4.22;;;;;;;5.42;83.60;96636.44;5052943;28;20052;-79
2023/01/02 00:17:19;;;;;;;5.97;4.10;;;;;;;5.35;83.97;96635.94;5045918;28;20076;-84
2023/01/02 00:19:46;;;;;;;9.07;4.95;;;;;;;5.34;83.69;96634.34;5047115;28;20486;-84
2023/01/02 00:22:12;;;;;;;8.38;4.63;;;;;;;5.29;83.73;96634.38;5046720;28;20046;-81
2023/01/02 00:24:39;;;;;;;8.82;4.70;;;;;;;5.24;83.60;96629.00;5048027;28;20033;-82
2023/01/02 00:27:07;;;;;;;8.13;4.63;;;;;;;5.17;83.86;96629.28;5051402;28;20041;-83
2023/01/02 00:29:33;;;;;;;8.13;4.40;;;;;;;5.07;83.12;96625.84;5053181;28;20067;-88
2023/01/02 00:32:00;;;;;;;6.20;3.97;;;;;;;5.01;83.20;96625.00;5050649;28;20046;-82
2023/01/02 00:34:26;;;;;;;6.65;4.47;;;;;;;4.97;83.56;96630.19;5044467;28;20045;-84
2023/01/02 00:36:53;;;;;;;7.07;3.90;;;;;;;4.91;83.83;96630.47;5048857;28;20041;-82
2023/01/02 00:39:19;;;;;;;7.00;3.88;;;;;;;4.85;84.02;96626.16;5051834;28;20046;-85
2023/01/02 00:41:46;;;;;;;6.60;4.10;;;;;;;4.82;84.27;96627.53;5052918;28;20069;-84
2023/01/02 00:44:13;;;;;;;7.97;4.63;;;;;;;4.77;84.69;96630.22;5044969;28;20095;-81
2023/01/02 00:46:40;;;;;;;6.85;3.88;;;;;;;4.71;85.36;96634.03;5046150;28;20045;-81
2023/01/02 00:49:06;;;;;;;6.70;3.92;;;;;;;4.69;85.39;96628.09;5045414;28;20052;-85
2023/01/02 00:51:33;;;;;;;9.50;4.28;;;;;;;4.67;86.05;96628.38;5047596;28;20049;-82
2023/01/02 00:53:59;;;;;;;7.57;4.13;;;;;;;4.70;86.42;96629.72;5057415;28;20040;-84
2023/01/02 00:56:26;;;;;;;6.32;4.10;;;;;;;4.66;86.77;96631.34;5057794;28;20052;-86
2023/01/02 00:58:52;;;;;;;7.43;4.28;;;;;;;4.69;86.63;96633.47;5051951;28;20071;-81
2023/01/02 01:01:20;;;;;;;7.40;4.43;;;;;;;4.65;87.13;96627.84;5045089;28;20105;-87
2023/01/02 01:03:46;;;;;;;9.35;4.97;;;;;;;4.64;87.59;96626.19;5043487;28;20053;-87
2023/01/02 01:06:14;;;;;;;7.10;4.10;;;;;;;4.66;87.63;96623.25;5041731;28;20049;-85
2023/01/02 01:08:40;;;;;;;7.95;4.30;;;;;;;4.65;87.70;96633.25;5049750;28;20037;-83
2023/01/02 01:11:08;;;;;;;7.25;4.35;;;;;;;4.68;87.92;96626.47;5047614;28;20453;-83
2023/01/02 01:13:35;;;;;;;7.35;4.57;;;;;;;4.67;87.39;96633.75;5044053;28;20140;-84
2023/01/02 01:16:06;;;;;;;8.43;4.15;;;;;;;4.60;87.21;96629.75;5043532;28;20049;-83
2023/01/02 01:18:34;;;;;;;7.35;4.85;;;;;;;4.54;88.46;96630.81;5042309;28;20042;-81
2023/01/02 01:21:06;;;;;;;7.25;4.32;;;;;;;4.61;87.85;96631.34;5043038;28;20048;-84
2023/01/02 01:23:32;;;;;;;7.13;4.05;;;;;;;4.57;87.56;96630.28;5041955;28;20044;-85
2023/01/02 01:25:58;;;;;;;7.85;4.60;;;;;;;4.59;87.52;96646.97;5041837;28;20037;-85
2023/01/02 01:28:25;;;;;;;7.55;4.20;;;;;;;4.55;87.15;96649.44;5041417;28;20070;-85
2023/01/02 01:30:51;;;;;;;7.07;4.13;;;;;;;4.55;87.18;96648.63;5053947;28;20046;-81
2023/01/02 01:33:18;;;;;;;6.85;3.92;;;;;;;4.53;86.79;96650.78;5044926;28;20045;-82
2023/01/02 01:35:45;;;;;;;8.25;4.15;;;;;;;4.44;86.34;96640.56;5044290;28;20041;-81
2023/01/02 01:38:12;;;;;;;9.50;4.70;;;;;;;4.36;86.04;96641.09;5049866;28;20049;-84
2023/01/02 01:40:39;;;;;;;9.98;4.22;;;;;;;4.29;86.21;96640.56;5050677;28;20041;-82
2023/01/02 01:43:12;;;;;;;7.47;4.50;;;;;;;4.26;86.91;96633.00;5045116;28;20046;-83
2023/01/02 01:45:41;;;;;;;7.65;4.20;;;;;;;4.27;87.01;96636.50;5044735;28;20645;-85
2023/01/02 01:48:14;;;;;;;7.75;4.38;;;;;;;4.28;87.54;96638.94;5043928;28;20475;-82
2023/01/02 01:50:42;;;;;;;7.80;4.25;;;;;;;4.31;87.88;96643.78;5044936;28;20056;-86
2023/01/02 01:53:16;;;;;;;6.93;4.20;;;;;;;4.35;88.48;96644.88;5049623;28;20045;-82
2023/01/02 01:55:49;;;;;;;10.55;5.05;;;;;;;4.35;88.59;96644.88;5052972;28;20049;-83
2023/01/02 01:58:18;;;;;;;;;;;;;;;4.41;88.74;96642.97;5053381;28;20065;-87
2023/01/02 02:00:46;;;;;;;8.57;4.53;;;;;;;4.31;89.27;96642.97;5044844;28;19920;-80
2023/01/02 02:03:16;;;;;;;8.95;5.22;;;;;;;4.14;90.27;96632.47;5049380;28;20061;-83
2023/01/02 02:05:45;;;;;;;9.35;5.43;;;;;;;4.26;89.87;96624.91;5051781;28;20045;-80
2023/01/02 02:08:17;;;;;;;9.52;4.93;;;;;;;4.31;89.58;96627.63;5050865;28;20037;-85
2023/01/02 02:10:45;;;;;;;6.60;4.68;;;;;;;4.28;89.55;96617.38;5042531;28;20049;-84
2023/01/02 02:13:12;;;;;;;9.70;4.93;;;;;;;4.33;89.05;96609.28;5041248;28;20041;-84
2023/01/02 02:15:49;;;;;;;7.63;4.57;;;;;;;4.33;89.24;96609.28;5043459;28;20076;-85
2023/01/02 02:18:31;;;;;;;7.15;4.20;;;;;;;4.27;89.13;96615.75;5044086;28;20045;-83
2023/01/02 02:21:06;;;;;;;9.05;4.50;;;;;;;4.33;89.40;96614.69;5051688;28;20123;-84
2023/01/02 02:23:53;;;;;;;6.65;4.03;;;;;;;4.34;89.47;96616.31;5050331;28;20041;-85
2023/01/02 02:26:48;;;;;;;7.32;4.55;;;;;;;4.36;88.87;96608.72;5053934;28;20041;-86
2023/01/02 02:29:48;;;;;;;10.07;4.75;;;;;;;4.32;89.02;96612.25;5046758;28;20418;-84
2023/01/02 02:32:20;;;;;;;8.18;3.90;;;;;;;4.29;89.12;96608.22;5051048;28;20075;-84
2023/01/02 02:34:56;;;;;;;7.13;4.18;;;;;;;4.29;89.28;96600.13;5053552;28;20049;-83
2023/01/02 02:37:27;;;;;;;9.30;3.65;;;;;;;4.28;89.24;96606.59;5053018;28;20061;-83
2023/01/02 02:40:03;;;;;;;7.75;4.65;;;;;;;4.31;89.48;96595.25;5051977;28;20046;-80
2023/01/02 02:42:41;;;;;;;6.47;4.05;;;;;;;4.38;89.29;96601.16;5050949;28;20048;-83
2023/01/02 02:45:19;;;;;;;7.35;4.22;;;;;;;4.39;89.06;96596.63;5049842;28;20048;-88
2023/01/02 02:47:51;;;;;;;6.65;4.07;;;;;;;4.39;88.95;96597.41;5047007;28;20049;-82
2023/01/02 02:50:26;;;;;;;7.43;4.25;;;;;;;4.42;88.71;96599.56;5045137;28;20054;-87
2023/01/02 02:53:01;;;;;;;9.93;4.70;;;;;;;4.48;88.54;96594.97;5059831;28;20537;-81
2023/01/02 02:55:32;;;;;;;7.10;4.00;;;;;;;4.50;88.63;96592.00;5051042;28;20041;-80
2023/01/02 02:58:00;;;;;;;8.65;4.35;;;;;;;4.52;88.43;96590.63;5052027;28;20075;-83
2023/01/02 03:00:28;;;;;;;6.13;3.65;;;;;;;4.51;88.39;96591.72;5050445;28;20046;-82
2023/01/02 03:02:54;;;;;;;6.82;3.72;;;;;;;4.50;88.20;96592.00;5042850;28;20049;-82
2023/01/02 03:05:30;;;;;;;7.57;4.55;;;;;;;4.49;87.98;96595.75;5042972;28;20068;-81
2023/01/02 03:08:05;;;;;;;9.18;4.43;;;;;;;4.39;88.32;96589.34;5051159;28;20075;-83
2023/01/02 03:10:38;;;;;;;6.75;3.67;;;;;;;4.43;88.43;96582.28;5044558;28;20041;-82
2023/01/02 03:13:13;;;;;;;7.50;3.80;;;;;;;4.49;87.97;96579.56;5043781;28;20457;-82
2023/01/02 03:15:48;;;;;;;6.22;3.67;;;;;;;4.48;87.85;96577.97;5049185;28;20042;-83
2023/01/02 03:18:23;;;;;;;6.43;3.63;;;;;;;4.48;87.62;96586.06;5047095;28;20072;-82
2023/01/02 03:20:58;;;;;;;6.32;3.65;;;;;;;4.45;87.44;96584.72;5047924;28;20042;-81
2023/01/02 03:23:28;;;;;;;6.47;3.80;;;;;;;4.43;87.65;96586.88;5046614;28;20052;-82
2023/01/02 03:25:57;;;;;;;6.13;3.60;;;;;;;4.40;87.46;96582.84;5049013;28;20049;-82
2023/01/02 03:28:26;;;;;;;6.70;4.15;;;;;;;4.38;87.21;96578.78;5046583;28;20076;-82
2023/01/02 03:31:00;;;;;;;6.35;4.20;;;;;;;4.37;87.60;96572.59;5056186;28;20046;-81
2023/01/02 03:33:30;;;;;;;5.93;3.75;;;;;;;4.23;87.46;96571.56;5056406;28;20045;-81
2023/01/02 03:36:02;;;;;;;7.13;3.58;;;;;;;4.25;87.24;96569.41;5050376;28;20053;-80
2023/01/02 03:38:34;;;;;;;5.88;3.55;;;;;;;4.25;87.30;96579.38;5056235;28;20072;-79
2023/01/02 03:41:07;;;;;;;6.55;3.83;;;;;;;4.17;87.03;96573.44;5052473;28;20045;-81
2023/01/02 03:43:36;;;;;;;6.63;4.10;;;;;;;4.20;88.29;96572.09;5046604;28;20097;-79
2023/01/02 03:46:12;;;;;;;7.57;3.88;;;;;;;4.27;87.64;96569.91;5042492;28;20443;-84
2023/01/02 03:48:43;;;;;;;6.70;3.83;;;;;;;4.20;87.89;96555.94;5045570;28;20056;-79
2023/01/02 03:51:09;;;;;;;5.45;3.50;;;;;;;4.17;87.91;96559.16;5051675;28;20504;-83
2023/01/02 03:53:38;;;;;;;6.38;3.95;;;;;;;4.12;87.70;96560.00;5051913;28;20478;-82
2023/01/02 03:56:17;;;;;;;6.63;4.00;;;;;;;4.06;87.83;96552.16;5054251;28;20041;-83
2023/01/02 03:58:49;;;;;;;7.57;3.60;;;;;;;4.11;88.03;96552.16;5053411;28;20041;-79
2023/01/02 04:01:25;;;;;;;7.88;4.28;;;;;;;4.13;88.05;96555.41;5053711;28;20037;-85
2023/01/02 04:03:57;;;;;;;8.05;4.22;;;;;;;4.13;88.02;96555.41;5044359;28;20049;-82
2023/01/02 04:06:31;;;;;;;18.02;7.45;;;;;;;3.99;88.27;96548.94;5039526;28;20045;-82
2023/01/02 04:09:05;;;;;;;17.92;7.97;;;;;;;4.03;88.11;96544.63;5055834;28;20041;-82
2023/01/02 04:11:34;;;;;;;18.98;8.13;;;;;;;4.01;88.25;96546.78;5041866;28;20606;-81
2023/01/02 04:14:09;;;;;;;25.00;8.98;;;;;;;4.01;88.40;96546.78;5042455;28;20049;-83
2023/01/02 04:16:39;;;;;;;37.22;14.23;;;;;;;4.01;88.16;96547.59;5042012;28;20096;-81
2023/01/02 04:19:12;;;;;;;39.03;13.68;;;;;;;4.02;88.27;96543.84;5042015;28;20488;-85
2023/01/02 04:21:41;;;;;;;24.90;10.55;;;;;;;4.09;88.27;96544.34;5041965;28;20052;-82
2023/01/02 04:24:11;;;;;;;20.27;9.18;;;;;;;4.10;87.76;96551.34;5042411;28;20053;-82
2023/01/02 04:26:45;;;;;;;24.27;8.93;;;;;;;4.07;87.51;96551.06;5043898;28;20494;-83
2023/01/02 04:29:11;;;;;;;19.75;8.85;;;;;;;3.92;87.45;96546.53;5043055;28;20052;-81
2023/01/02 04:31:45;;;;;;;19.52;8.90;;;;;;;3.83;87.23;96546.25;5043610;28;20045;-83
2023/01/02 04:34:13;;;;;;;;;;;;;;;3.82;87.86;96546.53;5043949;28;20045;-85
2023/01/02 04:36:41;;;;;;;10.38;5.07;;;;;;;3.79;88.19;96547.88;5042978;28;19921;-82
2023/01/02 04:39:08;;;;;;;8.80;4.60;;;;;;;3.74;88.22;96553.25;5050476;28;20041;-85
2023/01/02 04:41:35;;;;;;;8.27;4.57;;;;;;;3.72;88.95;96547.34;5047676;28;20045;-83
2023/01/02 04:44:01;;;;;;;6.45;4.22;;;;;;;3.76;88.98;96556.50;5044045;28;20068;-80
2023/01/02 04:46:29;;;;;;;6.82;3.83;;;;;;;3.75;89.26;96549.47;5043301;28;20045;-77
2023/01/02 04:48:57;;;;;;;8.75;3.72;;;;;;;3.74;89.06;96547.88;5043813;28;20113;-80
2023/01/02 04:51:24;;;;;;;5.55;3.50;;;;;;;3.72;89.14;96552.72;5043252;28;20045;-80
2023/01/02 04:53:51;;;;;;;7.60;3.95;;;;;;;3.76;89.04;96551.13;5042844;28;20068;-82
2023/01/02 04:56:18;;;;;;;6.00;3.90;;;;;;;3.79;88.85;96553.25;5042171;28;20041;-82
2023/01/02 04:58:45;;;;;;;6.53;3.80;;;;;;;3.79;89.25;96555.94;5043437;28;20046;-80
2023/01/02 05:01:14;;;;;;;8.10;3.35;;;;;;;3.84;88.57;96558.66;5051743;28;20044;-83
2023/01/02 05:03:42;;;;;;;6.80;3.30;;;;;;;3.79;88.48;96564.03;5053595;28;20041;-83
2023/01/02 05:06:10;;;;;;;6.25;2.95;;;;;;;3.79;88.14;96569.41;5054138;28;20508;-82
2023/01/02 05:08:37;;;;;;;5.32;3.38;;;;;;;3.79;88.11;96565.94;5048786;28;20052;-81
2023/01/02 05:11:08;;;;;;;6.53;3.53;;;;;;;3.76;87.73;96567.28;5042130;28;20603;-81
2023/01/02 05:13:35;;;;;;;5.80;3.47;;;;;;;3.69;88.30;96566.72;5042882;28;20056;-84
2023/01/02 05:16:02;;;;;;;6.72;3.40;;;;;;;3.66;88.20;96572.66;5041284;28;20050;-83
2023/01/02 05:18:29;;;;;;;6.50;3.65;;;;;;;3.67;88.32;96580.47;5040565;28;20402;-82
2023/01/02 05:21:00;;;;;;;5.45;3.30;;;;;;;3.65;87.95;96573.72;5033496;28;20064;-84
2023/01/02 05:26:12;;;;;;;5.63;3.53;;;;;;;3.57;87.40;96582.34;5049250;28;20103;-87
2023/01/02 05:28:39;;;;;;;8.27;3.50;;;;;;;3.51;87.27;96586.09;5051082;28;20046;-86
2023/01/02 05:31:05;;;;;;;6.32;3.40;;;;;;;3.43;87.10;96592.00;5052876;28;20533;-85
2023/01/02 05:33:32;;;;;;;5.10;3.08;;;;;;;3.39;87.35;96589.84;5051606;28;20080;-83
2023/01/02 05:35:58;;;;;;;6.00;3.65;;;;;;;3.37;87.64;96593.88;5054503;28;20052;-82
2023/01/02 05:38:25;;;;;;;7.05;3.63;;;;;;;3.36;87.94;96595.75;5051453;28;20052;-82
2023/01/02 05:41:01;;;;;;;8.38;3.90;;;;;;;3.35;88.26;96594.16;5042772;28;20037;-80
2023/01/02 05:43:30;;;;;;;6.75;3.72;;;;;;;3.32;88.37;96591.19;5044796;28;20045;-81
2023/01/02 05:45:56;;;;;;;6.47;3.80;;;;;;;3.26;88.75;96584.97;5052326;28;20056;-81
2023/01/02 05:48:22;;;;;;;4.47;3.15;;;;;;;3.24;88.78;96591.72;5051834;28;20049;-80
2023/01/02 05:50:49;;;;;;;5.68;3.40;;;;;;;3.24;88.95;96594.41;5052814;28;20052;-79
2023/01/02 05:53:16;;;;;;;8.23;4.00;;;;;;;3.22;89.21;96589.25;5043955;28;20500;-81
2023/01/02 05:55:43;;;;;;;6.10;3.70;;;;;;;3.18;89.42;96590.84;5054493;28;20052;-80
2023/01/02 05:58:10;;;;;;;8.93;3.80;;;;;;;3.21;89.66;96593.03;5056172;28;20041;-80
2023/01/02 06:00:37;;;;;;;5.82;3.10;;;;;;;3.21;89.58;96597.59;5050165;28;20041;-80
2023/01/02 06:03:03;;;;;;;8.40;3.75;;;;;;;3.20;89.74;96604.88;5044462;28;20045;-81
2023/01/02 06:05:30;;;;;;;7.65;3.65;;;;;;;3.20;89.75;96604.88;5044477;28;20107;-79
2023/01/02 06:07:56;;;;;;;6.60;3.80;;;;;;;3.19;88.95;96605.16;5055301;28;20041;-81
2023/01/02 06:10:23;;;;;;;7.10;3.60;;;;;;;3.17;89.06;96602.69;5051825;28;20046;-81
2023/01/02 06:12:49;;;;;;;6.55;3.38;;;;;;;3.08;89.25;96609.66;5044694;28;20091;-79
2023/01/02 06:15:17;;;;;;;7.68;3.90;;;;;;;3.03;89.54;96610.47;5044694;28;20047;-81
2023/01/02 06:17:43;;;;;;;12.32;4.45;;;;;;;2.98;90.11;96605.06;5044654;28;20045;-81
2023/01/02 06:20:10;;;;;;;6.88;4.07;;;;;;;3.02;90.60;96602.66;5050216;28;20045;-80
2023/01/02 06:22:37;;;;;;;7.43;3.67;;;;;;;3.03;90.51;96597.03;5057496;28;20060;-83
2023/01/02 06:25:03;;;;;;;9.80;5.15;;;;;;;3.10;90.78;96607.53;5051256;28;20041;-82
2023/01/02 06:27:31;;;;;;;8.35;3.80;;;;;;;3.04;90.51;96597.84;5051716;28;20038;-80
2023/01/02 06:29:58;;;;;;;8.10;4.50;;;;;;;3.04;90.83;96603.22;5054981;28;20068;-81
2023/01/02 06:32:26;;;;;;;9.50;4.47;;;;;;;3.02;90.88;96605.34;5051019;28;20174;-81
2023/01/02 06:34:52;;;;;;;10.15;5.28;;;;;;;3.03;91.31;96606.97;5054235;28;20284;-82
2023/01/02 06:37:18;;;;;;;12.10;5.10;;;;;;;3.01;91.25;96604.53;5063145;28;20052;-82
2023/01/02 06:39:45;;;;;;;10.20;5.10;;;;;;;3.01;91.54;96609.09;5052187;28;20640;-78
2023/01/02 06:42:11;;;;;;;16.65;6.35;;;;;;;2.98;91.97;96613.16;5044746;28;20053;-81
2023/01/02 06:44:38;;;;;;;15.27;6.15;;;;;;;2.99;91.69;96613.94;5042544;28;20049;-80
2023/01/02 06:47:04;;;;;;;8.32;5.10;;;;;;;2.90;91.48;96610.94;5041037;28;20448;-80
2023/01/02 06:49:32;;;;;;;8.77;4.70;;;;;;;2.85;91.00;96600.16;5040698;28;20048;-81
2023/01/02 06:51:58;;;;;;;14.25;5.88;;;;;;;2.84;91.54;96604.75;5044060;28;20057;-85
2023/01/02 06:54:25;;;;;;;11.07;6.72;;;;;;;2.86;91.63;96607.97;5040711;28;20041;-85
2023/01/02 06:56:51;;;;;;;10.80;5.80;;;;;;;2.77;91.51;96598.00;5041650;28;20048;-83
2023/01/02 06:59:18;;;;;;;15.05;6.68;;;;;;;2.67;92.40;96592.56;5050467;28;20045;-85
2023/01/02 07:01:44;;;;;;;13.00;5.97;;;;;;;2.71;92.58;96599.81;5045841;28;20037;-81
2023/01/02 07:04:15;;;;;;;12.10;6.10;;;;;;;2.72;92.59;96595.28;5051756;28;20094;-84
2023/01/02 07:06:42;;;;;;;9.50;5.30;;;;;;;2.74;92.70;96593.94;5053030;28;20045;-84
2023/01/02 07:09:09;;;;;;;11.98;6.40;;;;;;;2.77;93.07;96596.09;5049325;28;20513;-83
2023/01/02 07:11:35;;;;;;;13.02;6.57;;;;;;;2.85;93.17;96606.34;5049346;28;20361;-84
2023/01/02 07:14:02;;;;;;;12.98;7.18;;;;;;;2.88;93.10;96602.34;5041604;28;20041;-87
2023/01/02 07:16:28;;;;;;;12.98;7.60;;;;;;;2.87;93.43;96608.78;5045542;28;20049;-79
2023/01/02 07:18:55;;;;;;;11.25;6.47;;;;;;;2.88;93.46;96607.72;5049735;28;20501;-80
2023/01/02 07:21:21;;;;;;;16.35;7.35;;;;;;;2.86;93.27;96607.97;5052827;28;20048;-82
2023/01/02 07:23:49;;;;;;;12.15;7.13;;;;;;;2.82;93.41;96606.91;5050367;28;20083;-80
2023/01/02 07:26:16;;;;;;;14.23;7.72;;;;;;;2.82;93.49;96601.50;5046643;28;20046;-81
2023/01/02 07:28:43;;;;;;;11.90;7.70;;;;;;;2.90;93.67;96594.00;5051640;28;20050;-83
2023/01/02 07:31:13;;;;;;;14.98;7.72;;;;;;;2.92;93.67;96589.97;5053267;28;20044;-86
2023/01/02 07:33:39;;;;;;;14.30;7.68;;;;;;;2.97;93.63;96591.88;5051047;28;20037;-81
2023/01/02 07:36:08;;;;;;;15.55;9.57;;;;;;;2.99;93.95;96595.13;5044571;28;20072;-86
2023/01/02 07:38:37;;;;;;;18.90;9.15;;;;;;;3.03;93.47;96606.97;5046643;28;20045;-83
2023/01/02 07:41:05;;;;;;;14.82;8.63;;;;;;;3.05;93.48;96607.50;5048042;28;20049;-87
2023/01/02 07:43:31;;;;;;;15.45;8.90;;;;;;;3.09;93.30;96619.38;5051554;28;20053;-85
2023/01/02 07:46:02;;;;;;;19.52;9.75;;;;;;;3.14;93.58;96622.09;5037461;28;20045;-80
2023/01/02 07:48:29;;;;;;;16.92;9.63;;;;;;;3.21;93.87;96622.63;5031888;28;20132;-78
2023/01/02 07:50:59;;;;;;;17.98;9.93;;;;;;;3.24;94.07;96618.63;5032240;28;20056;-87
2023/01/02 07:53:26;;;;;;;19.42;9.77;;;;;;;3.17;93.97;96613.47;5035660;28;20052;-89
2023/01/02 07:55:53;;;;;;;19.67;10.35;;;;;;;3.18;94.10;96615.06;5051611;28;20049;-87
2023/01/02 07:58:21;;;;;;;16.00;9.35;;;;;;;3.23;93.84;96625.84;5038591;28;20057;-88
2023/01/02 08:00:47;;;;;;;20.55;9.98;;;;;;;3.32;93.90;96624.28;5038070;28;20053;-92
2023/01/02 08:03:14;;;;;;;17.60;9.15;;;;;;;3.39;93.54;96616.78;5038645;28;20057;-89
2023/01/02 08:05:40;;;;;;;14.88;9.18;;;;;;;3.43;92.94;96622.41;5047794;28;20284;-87
2023/01/02 08:08:07;;;;;;;16.08;8.85;;;;;;;3.49;92.58;96625.94;5050357;28;20056;-90
2023/01/02 08:10:35;;;;;;;15.43;9.27;;;;;;;3.70;92.44;96640.25;5057829;28;20052;-92
2023/01/02 08:13:02;;;;;;;18.35;9.13;;;;;;;4.06;91.79;96646.47;5043454;28;20049;-88
2023/01/02 08:15:30;;;;;;;17.67;9.75;;;;;;;4.97;90.62;96646.38;5037958;28;20049;-88
2023/01/02 08:17:57;;;;;;;17.20;9.18;;;;;;;5.97;86.07;96653.47;5034097;28;20463;-88
2023/01/02 08:20:24;;;;;;;14.07;8.32;;;;;;;6.84;80.49;96639.19;5035009;28;20387;-88
2023/01/02 08:22:50;;;;;;;14.73;7.78;;;;;;;7.01;75.95;96639.53;5035282;28;20049;-89
2023/01/02 08:25:17;;;;;;;13.57;7.88;;;;;;;6.79;76.24;96636.53;5038155;28;20049;-87
2023/01/02 08:27:44;;;;;;;13.63;8.05;;;;;;;6.43;76.89;96634.16;5046727;28;20081;-86
2023/01/02 08:30:11;;;;;;;15.35;8.70;;;;;;;6.15;79.20;96626.81;5047500;28;20040;-90
2023/01/02 08:32:41;;;;;;;14.77;8.13;;;;;;;6.05;79.30;96632.31;5044131;28;20493;-86
2023/01/02 08:35:09;;;;;;;15.13;8.32;;;;;;;5.99;79.64;96639.66;5034432;28;20045;-88
2023/01/02 08:37:35;;;;;;;17.35;8.77;;;;;;;5.93;80.24;96640.78;5034402;28;20045;-83
2023/01/02 08:40:02;;;;;;;12.93;7.53;;;;;;;5.88;80.95;96649.69;5041608;28;20045;-86
2023/01/02 08:42:29;;;;;;;11.95;7.38;;;;;;;6.03;81.12;96656.94;5041508;28;20045;-78
2023/01/02 08:44:55;;;;;;;14.73;8.25;;;;;;;6.08;80.28;96656.91;5047659;28;20057;-78
2023/01/02 08:47:21;;;;;;;14.75;7.40;;;;;;;5.97;80.83;96653.47;5050236;28;20049;-83
2023/01/02 08:49:49;;;;;;;15.98;7.47;;;;;;;5.91;81.10;96665.41;5043776;28;20481;-85
2023/01/02 08:52:16;;;;;;;15.07;7.85;;;;;;;6.01;81.09;96670.75;5046288;28;20041;-81
2023/01/02 08:54:42;;;;;;;12.98;7.90;;;;;;;6.08;81.00;96669.59;5047637;28;20053;-82
2023/01/02 08:57:09;;;;;;;14.82;7.72;;;;;;;6.19;80.77;96676.56;5045027;28;20045;-84
2023/01/02 08:59:35;;;;;;;14.38;7.43;;;;;;;6.14;80.54;96674.69;5047704;28;20049;-87
2023/01/02 09:02:02;;;;;;;13.65;7.68;;;;;;;6.10;80.95;96662.81;5046485;28;20049;-83
2023/01/02 09:04:28;;;;;;;12.82;7.63;;;;;;;6.14;81.33;96663.06;5052906;28;20051;-80
2023/01/02 09:06:56;;;;;;;12.88;7.72;;;;;;;6.26;81.68;96655.41;5044184;28;20045;-85
2023/01/02 09:09:22;;;;;;;14.07;7.85;;;;;;;6.35;81.52;96652.91;5054077;28;20059;-80
2023/01/02 09:11:51;;;;;;;12.40;6.90;;;;;;;6.45;81.39;96658.22;5043073;28;20049;-80
2023/01/02 09:14:18;;;;;;;15.50;7.32;;;;;;;6.55;81.08;96658.13;5050391;28;20048;-80
2023/01/02 09:16:44;;;;;;;11.57;7.13;;;;;;;6.63;80.88;96659.41;5052275;28;20045;-78
2023/01/02 09:19:11;;;;;;;11.32;6.13;;;;;;;6.71;81.12;96656.91;5050398;28;20061;-80
2023/01/02 09:21:37;;;;;;;10.77;6.75;;;;;;;6.81;81.10;96656.00;5049401;28;20635;-82
2023/01/02 09:24:06;;;;;;;12.70;7.10;;;;;;;6.92;80.55;96657.50;5043208;28;20049;-85
2023/01/02 09:26:33;;;;;;;11.07;6.07;;;;;;;7.12;80.69;96666.50;5042824;28;20052;-83
2023/01/02 09:28:59;;;;;;;15.10;6.65;;;;;;;7.15;80.09;96665.91;5043788;28;20060;-82
2023/01/02 09:31:26;;;;;;;11.35;6.38;;;;;;;7.30;79.58;96669.25;5043059;28;20049;-81
2023/01/02 09:33:53;;;;;;;11.40;6.97;;;;;;;7.38;78.10;96665.09;5054172;28;20116;-82
2023/01/02 09:36:20;;;;;;;10.15;6.40;;;;;;;7.54;78.72;96663.81;5046877;28;20068;-81
2023/01/02 09:38:51;;;;;;;10.95;6.60;;;;;;;7.64;79.34;96656.66;5043169;28;20075;-80
2023/01/02 09:41:27;;;;;;;10.80;6.88;;;;;;;7.81;78.33;96668.59;5048010;28;20091;-79
2023/01/02 09:43:57;;;;;;;10.05;6.45;;;;;;;7.98;77.60;96651.00;5052990;28;20048;-81
2023/01/02 09:46:30;;;;;;;9.38;6.20;;;;;;;8.16;75.72;96657.53;5054983;28;20099;-79
2023/01/02 09:48:56;;;;;;;13.30;8.60;;;;;;;8.47;75.51;96664.13;5050733;28;20049;-82
2023/01/02 09:51:23;;;;;;;12.68;7.15;;;;;;;8.85;73.51;96659.38;5042733;28;20048;-80
2023/01/02 09:53:49;;;;;;;9.48;6.57;;;;;;;9.12;71.99;96649.66;5043296;28;20045;-80
2023/01/02 09:56:24;;;;;;;9.70;6.18;;;;;;;9.51;70.98;96654.59;5042514;28;20524;-79
2023/01/02 09:58:56;;;;;;;11.07;6.22;;;;;;;9.82;70.55;96656.69;5042863;28;20076;-80
2023/01/02 10:01:30;;;;;;;9.70;6.05;;;;;;;9.94;69.47;96657.75;5042805;28;20080;-81
2023/01/02 10:04:07;;;;;;;8.73;5.57;;;;;;;10.02;70.07;96652.66;5052523;28;20041;-80
2023/01/02 10:06:44;;;;;;;10.90;6.20;;;;;;;10.17;69.98;96650.41;5048650;28;20063;-81
2023/01/02 10:09:21;;;;;;;9.20;5.53;;;;;;;10.39;67.41;96657.03;5053374;28;20090;-82
2023/01/02 10:11:56;;;;;;;10.50;5.68;;;;;;;10.69;67.48;96672.59;5043540;28;20053;-79
2023/01/02 10:14:33;;;;;;;14.50;6.97;;;;;;;10.75;65.45;96658.84;5046306;28;20068;-82
2023/01/02 10:17:03;;;;;;;12.57;7.47;;;;;;;10.82;65.12;96648.34;5057555;28;20045;-80
2023/01/02 10:19:41;;;;;;;11.75;7.07;;;;;;;10.84;65.71;96651.53;5051035;28;20037;-81
2023/01/02 10:22:12;;;;;;;13.40;6.55;;;;;;;11.12;66.34;96649.41;5053995;28;20044;-82
2023/01/02 10:24:45;;;;;;;14.65;6.80;;;;;;;11.49;64.63;96645.41;5046826;28;20049;-83
2023/01/02 10:27:17;;;;;;;11.50;6.35;;;;;;;11.79;62.84;96645.63;5042161;28;20049;-82
2023/01/02 10:29:54;;;;;;;15.73;6.00;;;;;;;11.92;63.74;96645.53;5045353;28;20045;-82
2023/01/02 10:32:23;;;;;;;10.95;5.88;;;;;;;12.11;61.06;96644.41;5046499;28;20041;-82
2023/01/02 10:35:09;;;;;;;11.82;6.70;;;;;;;12.27;61.17;96634.63;5042193;28;20132;-80
2023/01/02 10:37:36;;;;;;;13.02;5.82;;;;;;;12.53;60.10;96645.53;5044473;28;20037;-80
2023/01/02 10:40:03;;;;;;;14.00;6.22;;;;;;;12.72;58.50;96632.31;5047160;28;20041;-81
2023/01/02 10:42:33;;;;;;;8.30;5.03;;;;;;;12.73;57.60;96633.09;5052871;28;20080;-82
2023/01/02 10:45:01;;;;;;;6.35;4.03;;;;;;;12.57;56.41;96627.34;5045683;28;20045;-80
2023/01/02 10:47:33;;;;;;;5.65;3.65;;;;;;;12.24;57.29;96633.34;5048000;28;20061;-80
2023/01/02 10:50:01;;;;;;;6.57;4.38;;;;;;;12.27;58.16;96618.25;5051788;28;20045;-81
2023/01/02 10:52:31;;;;;;;6.10;4.22;;;;;;;12.30;57.51;96617.59;5051367;28;20042;-80
2023/01/02 10:54:59;;;;;;;6.35;3.50;;;;;;;12.22;57.92;96608.28;5045567;28;20053;-83
2023/01/02 10:57:35;;;;;;;6.10;3.50;;;;;;;12.41;58.12;96605.19;5043427;28;20048;-82
2023/01/02 11:00:07;;;;;;;5.22;3.20;;;;;;;12.58;57.44;96601.66;5050699;28;20320;-81
2023/01/02 11:02:38;;;;;;;12.07;3.92;;;;;;;12.85;56.98;96602.41;5051956;28;20045;-81
2023/01/02 11:05:07;;;;;;;10.00;3.63;;;;;;;13.03;56.91;96590.25;5049504;28;20111;-80
2023/01/02 11:07:36;;;;;;;7.45;4.00;;;;;;;13.00;56.89;96590.94;5048477;28;20045;-79
2023/01/02 11:10:04;;;;;;;7.30;3.58;;;;;;;12.89;57.17;96584.19;5055065;28;20041;-81
2023/01/02 11:12:31;;;;;;;9.02;4.25;;;;;;;12.79;57.69;96588.91;5043613;28;20107;-81
2023/01/02 11:15:13;;;;;;;13.77;4.30;;;;;;;12.76;57.64;96584.09;5046009;28;20056;-79
2023/01/02 11:17:42;;;;;;;8.52;4.55;;;;;;;12.77;58.81;96585.69;5044015;28;20053;-79
2023/01/02 11:20:21;;;;;;;7.88;4.20;;;;;;;12.83;59.24;96577.31;5044784;28;20046;-82
2023/01/02 11:22:48;;;;;;;6.25;3.75;;;;;;;12.96;59.71;96598.19;5046785;28;20083;-80
2023/01/02 11:25:21;;;;;;;8.52;3.60;;;;;;;12.95;58.33;96611.03;5063174;28;20075;-84
2023/01/02 11:27:49;;;;;;;8.10;3.50;;;;;;;12.91;58.42;96601.88;5052147;28;20046;-82
2023/01/02 11:30:29;;;;;;;6.28;3.60;;;;;;;12.99;60.08;96592.03;5052923;28;20044;-82
2023/01/02 11:33:06;;;;;;;5.60;3.50;;;;;;;12.95;60.66;96596.59;5043097;28;20052;-85
2023/01/02 11:35:38;;;;;;;6.40;3.40;;;;;;;12.93;60.90;96601.56;5062668;28;20052;-84
2023/01/02 11:38:05;;;;;;;5.32;3.45;;;;;;;12.88;60.91;96601.72;5059221;28;20048;-83
2023/01/02 11:40:32;;;;;;;11.23;4.13;;;;;;;12.68;60.11;96609.50;5056962;28;20045;-85
2023/01/02 11:45:52;;;;;;;8.93;6.00;;;;;;;12.13;65.03;96607.50;5057116;28;20417;-84
2023/01/02 11:48:22;;;;;;;11.07;6.88;;;;;;;12.07;65.52;96606.03;5065581;28;20044;-82
2023/01/02 11:50:50;;;;;;;12.10;6.97;;;;;;;11.91;67.03;96602.19;5055741;28;20049;-83